Terminal Aerodrome Forecast
Issued by NWS

Home | Current Version | Previous Version | Text Only | Print | Product List | Glossary On
Versions: 1 2 3 4 5 6 7 8 9 10 11 12 13 14 15 16 17 18 19 20 21 22 23 24 25 26 27 28 29
265
FTUS43 KLOT 181741
TAFMDW
TAF
KMDW 181741Z 1818/1924 27012KT 3SM -DZ BR OVC009
     FM181815 25011KT 6SM -DZ BR BKN009 OVC018
     FM181900 25011G18KT P6SM SCT015 BKN040
     FM182000 23011KT P6SM BKN020
     FM190300 22012KT P6SM SCT015 BKN250 WS020/27045KT
     FM191000 26012KT P6SM BKN250=

USA.gov is the U.S. government's official web portal to all federal, state and local government web resources and services.